Time;durP1;ratioP1;P1;durP2;ratioP2;P2;SDS_P1;SDS_P2;PMS_P1;PMS_P2;Temp;Humidity;BMP_temperature;BMP_pressure;BME280_temperature;BME280_humidity;BME280_pressure;Samples;Min_cycle;Max_cycle;Signal;HPM_P1;HPM_P2
2022/07/19 00:00:49;;;;;;;;;28.00;28.00;;;;;;;;5249881;28;8780;-74
2022/07/19 00:03:21;;;;;;;;;20.20;20.20;;;;;;;;5250221;28;8768;-74
2022/07/19 00:05:52;;;;;;;;;38.60;34.20;;;;;;;;5266668;28;8796;-74
2022/07/19 00:08:41;;;;;;;;;41.60;36.40;;;;;;;;5244928;28;8809;-74
2022/07/19 00:11:12;;;;;;;;;35.20;31.40;;;;;;;;5228787;28;8775;-74
2022/07/19 00:13:44;;;;;;;;;27.25;27.25;;;;;;;;5212610;28;8787;-74
2022/07/19 00:16:15;;;;;;;;;18.50;18.50;;;;;;;;5245718;28;8802;-74
2022/07/19 00:18:46;;;;;;;;;13.00;13.00;;;;;;;;5245729;28;9522;-75
2022/07/19 00:21:17;;;;;;;;;19.75;19.75;;;;;;;;5244671;28;8783;-74
2022/07/19 00:23:48;;;;;;;;;31.25;28.25;;;;;;;;5245489;28;8883;-78
2022/07/19 00:26:19;;;;;;;;;21.50;21.50;;;;;;;;5228328;28;8822;-76
2022/07/19 00:28:52;;;;;;;;;26.25;26.00;;;;;;;;5228712;28;8803;-75
2022/07/19 00:31:23;;;;;;;;;27.50;27.25;;;;;;;;5229089;28;8802;-75
2022/07/19 00:33:54;;;;;;;;;28.00;27.50;;;;;;;;5228479;28;8799;-78
2022/07/19 00:36:25;;;;;;;;;27.50;27.25;;;;;;;;5245562;28;8869;-74
2022/07/19 00:38:57;;;;;;;;;27.00;26.00;;;;;;;;5263782;28;8779;-76
2022/07/19 00:41:28;;;;;;;;;25.00;25.00;;;;;;;;5243404;28;8811;-76
2022/07/19 00:43:59;;;;;;;;;27.40;27.40;;;;;;;;5236426;28;8804;-75
2022/07/19 00:46:30;;;;;;;;;27.75;27.75;;;;;;;;5268836;28;9542;-74
2022/07/19 00:49:02;;;;;;;;;18.00;18.00;;;;;;;;5228400;28;8791;-75
2022/07/19 00:51:39;;;;;;;;;19.50;19.50;;;;;;;;5246590;28;8794;-75
2022/07/19 00:54:11;;;;;;;;;14.00;14.00;;;;;;;;5249352;28;8803;-75
2022/07/19 00:56:44;;;;;;;;;14.50;14.50;;;;;;;;5248148;28;8780;-77
2022/07/19 00:59:15;;;;;;;;;12.50;12.50;;;;;;;;5249858;28;8787;-77
2022/07/19 01:02:05;;;;;;;;;14.00;14.00;;;;;;;;5251734;28;8777;-75
2022/07/19 01:04:36;;;;;;;;;14.50;14.50;;;;;;;;5268129;28;8796;-74
2022/07/19 01:07:07;;;;;;;;;10.50;10.50;;;;;;;;5253440;28;8894;-74
2022/07/19 01:09:38;;;;;;;;;11.00;11.00;;;;;;;;5270992;28;8872;-74
2022/07/19 01:12:10;;;;;;;;;9.00;9.00;;;;;;;;5247923;28;8806;-75
2022/07/19 01:14:41;;;;;;;;;14.00;14.00;;;;;;;;5249592;28;8771;-74
2022/07/19 01:17:13;;;;;;;;;11.50;11.50;;;;;;;;5232732;28;8786;-74
2022/07/19 01:19:44;;;;;;;;;13.00;13.00;;;;;;;;5248891;28;9588;-75
2022/07/19 01:22:15;;;;;;;;;13.00;13.00;;;;;;;;5231628;28;8787;-74
2022/07/19 01:24:46;;;;;;;;;13.75;13.75;;;;;;;;5248657;28;8862;-74
2022/07/19 01:27:17;;;;;;;;;10.00;10.00;;;;;;;;5248934;28;9518;-73
2022/07/19 01:29:48;;;;;;;;;8.67;8.67;;;;;;;;5247570;28;8791;-73
2022/07/19 01:32:19;;;;;;;;;13.25;13.25;;;;;;;;5248568;28;11512;-73
2022/07/19 01:34:50;;;;;;;;;11.00;11.00;;;;;;;;5265678;28;8941;-73
2022/07/19 01:37:21;;;;;;;;;11.25;11.25;;;;;;;;5248544;28;8991;-72
2022/07/19 01:39:56;;;;;;;;;10.50;10.50;;;;;;;;5248641;28;8791;-72
2022/07/19 01:42:27;;;;;;;;;12.00;12.00;;;;;;;;5214996;28;8775;-72
2022/07/19 01:44:58;;;;;;;;;26.50;26.50;;;;;;;;5248167;28;8826;-75
2022/07/19 01:47:48;;;;;;;;;18.50;18.50;;;;;;;;5250264;28;8875;-74
2022/07/19 01:50:19;;;;;;;;;13.75;13.75;;;;;;;;5249655;28;8803;-74
2022/07/19 01:52:50;;;;;;;;;13.50;13.50;;;;;;;;5231684;28;9712;-74
2022/07/19 01:55:21;;;;;;;;;13.00;13.00;;;;;;;;5248322;28;8871;-74
2022/07/19 01:57:52;;;;;;;;;13.25;13.25;;;;;;;;5231299;28;8794;-73
2022/07/19 02:00:24;;;;;;;;;14.75;14.75;;;;;;;;5248063;28;8791;-74
2022/07/19 02:03:13;;;;;;;;;20.00;20.00;;;;;;;;5238803;28;8929;-74
2022/07/19 02:05:44;;;;;;;;;12.00;12.00;;;;;;;;5264885;28;8949;-75
2022/07/19 02:08:16;;;;;;;;;10.25;10.25;;;;;;;;5268291;28;8881;-75
2022/07/19 02:10:47;;;;;;;;;11.50;11.50;;;;;;;;5252241;28;8811;-75
2022/07/19 02:13:18;;;;;;;;;14.00;14.00;;;;;;;;5252524;28;8783;-78
2022/07/19 02:16:09;;;;;;;;;11.75;11.50;;;;;;;;5234359;28;8802;-78
2022/07/19 02:18:40;;;;;;;;;10.25;10.25;;;;;;;;5232410;28;8807;-78
2022/07/19 02:21:12;;;;;;;;;11.25;11.25;;;;;;;;5233671;28;8796;-81
2022/07/19 02:23:43;;;;;;;;;10.50;10.50;;;;;;;;5230423;28;8823;-74
2022/07/19 02:26:14;;;;;;;;;40.40;35.40;;;;;;;;5247615;28;8843;-74
2022/07/19 02:28:46;;;;;;;;;17.00;17.00;;;;;;;;5231497;28;8775;-73
2022/07/19 02:31:36;;;;;;;;;8.00;8.00;;;;;;;;5247839;28;8814;-72
2022/07/19 02:34:25;;;;;;;;;9.00;9.00;;;;;;;;5248004;28;8872;-74
2022/07/19 02:36:56;;;;;;;;;7.25;7.25;;;;;;;;5214262;28;8803;-73
2022/07/19 02:39:27;;;;;;;;;7.50;7.50;;;;;;;;5250288;28;8799;-75
2022/07/19 02:41:58;;;;;;;;;6.75;6.75;;;;;;;;5252119;28;8939;-74
2022/07/19 02:44:29;;;;;;;;;7.75;7.75;;;;;;;;5250776;28;8835;-74
2022/07/19 02:47:00;;;;;;;;;6.75;6.75;;;;;;;;5234756;28;8788;-75
2022/07/19 02:49:31;;;;;;;;;21.25;21.25;;;;;;;;5251551;28;8768;-77
2022/07/19 02:52:03;;;;;;;;;9.50;9.50;;;;;;;;5268208;28;8796;-74
2022/07/19 02:54:34;;;;;;;;;7.50;7.50;;;;;;;;5266922;28;8804;-74
2022/07/19 02:57:05;;;;;;;;;3.75;3.75;;;;;;;;5247375;28;8798;-75
2022/07/19 02:59:36;;;;;;;;;4.50;4.50;;;;;;;;5247279;28;8802;-74
2022/07/19 03:02:07;;;;;;;;;6.00;6.00;;;;;;;;5230259;28;8779;-75
2022/07/19 03:04:39;;;;;;;;;3.50;3.50;;;;;;;;5230640;28;8901;-75
2022/07/19 03:07:28;;;;;;;;;110.00;100.40;;;;;;;;5247377;28;8925;-76
2022/07/19 03:10:18;;;;;;;;;15.00;15.00;;;;;;;;5232888;28;8911;-74
2022/07/19 03:12:49;;;;;;;;;14.25;14.25;;;;;;;;5230708;28;8783;-74
2022/07/19 03:15:20;;;;;;;;;5.25;5.25;;;;;;;;5230198;28;8814;-74
2022/07/19 03:17:51;;;;;;;;;5.25;5.25;;;;;;;;5242207;28;8822;-74
2022/07/19 03:20:41;;;;;;;;;2.50;2.50;;;;;;;;5261158;28;8794;-74
2022/07/19 03:23:32;;;;;;;;;6.50;6.50;;;;;;;;5251764;28;9539;-74
2022/07/19 03:26:03;;;;;;;;;5.50;5.50;;;;;;;;5266899;28;8844;-74
2022/07/19 03:28:52;;;;;;;;;5.75;5.75;;;;;;;;5250032;28;8876;-74
2022/07/19 03:31:23;;;;;;;;;7.75;7.75;;;;;;;;5246954;28;9551;-74
2022/07/19 03:33:54;;;;;;;;;9.75;9.75;;;;;;;;5229603;28;8783;-74
2022/07/19 03:36:25;;;;;;;;;6.25;6.25;;;;;;;;5229879;28;9625;-72
2022/07/19 03:39:15;;;;;;;;;16.25;16.25;;;;;;;;5247410;28;9526;-72
2022/07/19 03:41:46;;;;;;;;;15.00;14.50;;;;;;;;5236135;28;8840;-72
2022/07/19 03:44:17;;;;;;;;;8.00;8.00;;;;;;;;5245589;28;8815;-73
2022/07/19 03:46:48;;;;;;;;;6.75;6.75;;;;;;;;5247111;28;8819;-72
2022/07/19 03:49:19;;;;;;;;;11.00;11.00;;;;;;;;5246163;28;8803;-72
2022/07/19 03:51:50;;;;;;;;;12.50;12.50;;;;;;;;5229499;28;8787;-74
2022/07/19 03:54:21;;;;;;;;;12.50;12.50;;;;;;;;5245940;28;9461;-75
2022/07/19 03:56:52;;;;;;;;;11.00;11.00;;;;;;;;5246213;28;8790;-75
2022/07/19 03:59:23;;;;;;;;;9.67;9.67;;;;;;;;5249355;28;8889;-74
2022/07/19 04:01:54;;;;;;;;;14.25;14.25;;;;;;;;5266766;28;10750;-75
2022/07/19 04:04:26;;;;;;;;;14.00;14.00;;;;;;;;5234913;28;8795;-74
2022/07/19 04:06:57;;;;;;;;;15.00;15.00;;;;;;;;5229345;28;8862;-75
2022/07/19 04:09:28;;;;;;;;;15.00;15.00;;;;;;;;5229226;28;8791;-75
2022/07/19 04:11:59;;;;;;;;;18.50;17.25;;;;;;;;5212540;28;8771;-74
2022/07/19 04:14:30;;;;;;;;;42.50;37.50;;;;;;;;5214296;28;8807;-73
2022/07/19 04:17:04;;;;;;;;;13.50;13.50;;;;;;;;5246978;28;11558;-74
2022/07/19 04:19:35;;;;;;;;;14.50;14.50;;;;;;;;5229410;28;8810;-75
2022/07/19 04:22:06;;;;;;;;;14.00;14.00;;;;;;;;5216651;28;9543;-74
2022/07/19 04:24:37;;;;;;;;;15.00;15.00;;;;;;;;5266502;28;8840;-74
2022/07/19 04:27:09;;;;;;;;;16.00;16.00;;;;;;;;5266861;28;9560;-69
2022/07/19 04:29:40;;;;;;;;;17.50;17.50;;;;;;;;5247997;28;8792;-73
2022/07/19 04:32:11;;;;;;;;;17.00;17.00;;;;;;;;5253021;28;8871;-73
2022/07/19 04:34:42;;;;;;;;;18.67;18.67;;;;;;;;5245991;28;8918;-73
2022/07/19 04:37:13;;;;;;;;;15.25;15.00;;;;;;;;5245403;28;9589;-73
2022/07/19 04:39:44;;;;;;;;;16.50;16.25;;;;;;;;5244329;28;8787;-73
2022/07/19 04:42:14;;;;;;;;;18.33;18.33;;;;;;;;5259288;28;8811;-73
2022/07/19 04:45:05;;;;;;;;;18.50;18.50;;;;;;;;5257993;28;8867;-73
2022/07/19 04:47:36;;;;;;;;;18.75;18.75;;;;;;;;5246667;28;8792;-73
2022/07/19 04:50:07;;;;;;;;;18.50;18.50;;;;;;;;5249241;28;8824;-74
2022/07/19 04:52:38;;;;;;;;;18.00;18.00;;;;;;;;5246106;28;8795;-73
2022/07/19 04:55:27;;;;;;;;;19.50;19.50;;;;;;;;5246641;28;8831;-73
2022/07/19 04:57:58;;;;;;;;;19.00;19.00;;;;;;;;5245808;28;8918;-74
2022/07/19 05:00:29;;;;;;;;;20.50;20.50;;;;;;;;5248990;28;10179;-73
2022/07/19 05:03:00;;;;;;;;;18.00;18.00;;;;;;;;5228847;28;8814;-73
2022/07/19 05:05:31;;;;;;;;;26.00;26.00;;;;;;;;5245758;28;8811;-72
2022/07/19 05:08:02;;;;;;;;;19.50;19.50;;;;;;;;5228186;28;8783;-72
2022/07/19 05:10:33;;;;;;;;;22.75;22.75;;;;;;;;5245117;28;8779;-73
2022/07/19 05:13:04;;;;;;;;;21.50;21.50;;;;;;;;5242909;28;8802;-72
2022/07/19 05:15:36;;;;;;;;;21.00;21.00;;;;;;;;5228443;28;8783;-73
2022/07/19 05:18:07;;;;;;;;;23.50;23.50;;;;;;;;5261697;28;8818;-72
2022/07/19 05:20:38;;;;;;;;;23.25;23.25;;;;;;;;5228036;28;9505;-72
2022/07/19 05:23:09;;;;;;;;;24.00;24.00;;;;;;;;5259449;28;8831;-72
2022/07/19 05:25:40;;;;;;;;;22.75;22.50;;;;;;;;5248629;28;8828;-72
2022/07/19 05:28:11;;;;;;;;;25.50;25.25;;;;;;;;5265744;28;8780;-72
2022/07/19 05:30:43;;;;;;;;;22.00;22.00;;;;;;;;5255071;28;8803;-72
2022/07/19 05:33:16;;;;;;;;;23.25;23.25;;;;;;;;5227826;28;9640;-72
2022/07/19 05:36:05;;;;;;;;;23.00;23.00;;;;;;;;5244744;28;8811;-72
2022/07/19 05:38:38;;;;;;;;;23.75;23.75;;;;;;;;5227961;28;8957;-72
2022/07/19 05:41:10;;;;;;;;;24.75;24.75;;;;;;;;5230387;28;8908;-72
2022/07/19 05:43:59;;;;;;;;;19.25;19.25;;;;;;;;5247333;28;8823;-73
2022/07/19 05:46:30;;;;;;;;;23.50;23.50;;;;;;;;5245528;28;8834;-72
2022/07/19 05:49:01;;;;;;;;;20.00;20.00;;;;;;;;5229371;28;8795;-72
2022/07/19 05:51:32;;;;;;;;;23.00;23.00;;;;;;;;5246869;28;8852;-72
2022/07/19 05:54:04;;;;;;;;;21.25;21.25;;;;;;;;5248554;28;8775;-71
2022/07/19 05:56:35;;;;;;;;;22.75;22.25;;;;;;;;5248354;28;8779;-72
2022/07/19 05:59:06;;;;;;;;;22.00;22.00;;;;;;;;5247831;28;8782;-72
2022/07/19 06:01:37;;;;;;;;;23.25;23.25;;;;;;;;5265237;28;8803;-72
2022/07/19 06:04:08;;;;;;;;;14.25;14.25;;;;;;;;5244486;28;8791;-72
2022/07/19 06:06:39;;;;;;;;;24.00;24.00;;;;;;;;5248023;28;8829;-72
2022/07/19 06:09:12;;;;;;;;;22.00;22.00;;;;;;;;5263903;28;11466;-73
2022/07/19 06:12:01;;;;;;;;;21.25;21.25;;;;;;;;5248249;28;9541;-73
2022/07/19 06:14:32;;;;;;;;;20.67;20.67;;;;;;;;5248116;28;8787;-71
2022/07/19 06:17:03;;;;;;;;;22.00;22.00;;;;;;;;5231428;28;12009;-71
2022/07/19 06:19:35;;;;;;;;;22.00;22.00;;;;;;;;5247960;28;8779;-71
2022/07/19 06:22:24;;;;;;;;;20.75;20.75;;;;;;;;5247262;28;8795;-72
2022/07/19 06:25:13;;;;;;;;;17.75;17.75;;;;;;;;5247918;28;8830;-72
2022/07/19 06:27:45;;;;;;;;;22.00;22.00;;;;;;;;5231138;28;8815;-70
2022/07/19 06:30:16;;;;;;;;;21.75;21.75;;;;;;;;5247596;28;9548;-72
2022/07/19 06:32:47;;;;;;;;;27.50;27.25;;;;;;;;5230927;28;8795;-73
2022/07/19 06:35:18;;;;;;;;;30.80;30.00;;;;;;;;5247794;28;8795;-74
2022/07/19 06:37:49;;;;;;;;;35.60;33.00;;;;;;;;5230218;28;9530;-72
2022/07/19 06:40:20;;;;;;;;;31.40;30.40;;;;;;;;5247756;28;8791;-73
2022/07/19 06:42:51;;;;;;;;;30.75;30.25;;;;;;;;5247465;28;8807;-72
2022/07/19 06:45:22;;;;;;;;;31.20;30.00;;;;;;;;5230974;28;8841;-72
2022/07/19 06:47:54;;;;;;;;;22.00;22.00;;;;;;;;5233011;28;9494;-73
2022/07/19 06:50:25;;;;;;;;;24.00;24.00;;;;;;;;5230671;28;8817;-73
2022/07/19 06:52:56;;;;;;;;;23.00;23.00;;;;;;;;5230543;28;8803;-73
2022/07/19 06:55:27;;;;;;;;;25.50;25.50;;;;;;;;5230679;28;8810;-73
2022/07/19 06:57:58;;;;;;;;;20.00;20.00;;;;;;;;5247449;28;8779;-72
2022/07/19 07:00:29;;;;;;;;;21.50;21.50;;;;;;;;5247132;28;8779;-72
2022/07/19 07:03:19;;;;;;;;;19.25;19.25;;;;;;;;5246478;28;8802;-72
2022/07/19 07:06:08;;;;;;;;;21.75;21.75;;;;;;;;5264605;28;9526;-72
2022/07/19 07:08:39;;;;;;;;;19.25;19.25;;;;;;;;5266094;28;8812;-72
2022/07/19 07:11:10;;;;;;;;;17.00;17.00;;;;;;;;5267912;28;9479;-73
2022/07/19 07:13:41;;;;;;;;;22.00;22.00;;;;;;;;5267588;28;8776;-72
2022/07/19 07:16:12;;;;;;;;;20.00;20.00;;;;;;;;5268466;28;10500;-73
2022/07/19 07:18:43;;;;;;;;;15.33;15.33;;;;;;;;5234034;28;8907;-73
2022/07/19 07:21:14;;;;;;;;;19.50;19.50;;;;;;;;5234247;28;8990;-72
2022/07/19 07:24:05;;;;;;;;;21.00;21.00;;;;;;;;5255053;28;8812;-72
2022/07/19 07:26:36;;;;;;;;;21.75;21.75;;;;;;;;5267591;28;8831;-73
2022/07/19 07:29:06;;;;;;;;;22.00;22.00;;;;;;;;5234071;28;8788;-74
2022/07/19 07:31:38;;;;;;;;;20.00;20.00;;;;;;;;5268705;28;8827;-74
2022/07/19 07:34:09;;;;;;;;;20.25;20.25;;;;;;;;5250276;28;8792;-74
2022/07/19 07:36:40;;;;;;;;;20.00;20.00;;;;;;;;5267475;28;8857;-73
2022/07/19 07:39:11;;;;;;;;;9.00;9.00;;;;;;;;5258062;28;8807;-75
2022/07/19 07:41:42;;;;;;;;;2.50;2.50;;;;;;;;5231631;28;8787;-74
2022/07/19 07:44:14;;;;;;;;;3.00;3.00;;;;;;;;5229535;28;8795;-74
2022/07/19 07:46:45;;;;;;;;;1.00;1.00;;;;;;;;5246355;28;9530;-74
2022/07/19 07:49:35;;;;;;;;;1.75;1.75;;;;;;;;5263538;28;8789;-73
2022/07/19 07:52:06;;;;;;;;;2.00;2.00;;;;;;;;5250541;28;9404;-73
2022/07/19 07:54:38;;;;;;;;;3.75;3.75;;;;;;;;5228111;28;8819;-73
2022/07/19 07:57:09;;;;;;;;;3.25;3.25;;;;;;;;5229564;28;8853;-73
2022/07/19 07:59:40;;;;;;;;;3.00;3.00;;;;;;;;5247106;28;8771;-72
2022/07/19 08:02:11;;;;;;;;;3.00;3.00;;;;;;;;5229844;28;8894;-72
2022/07/19 08:04:42;;;;;;;;;2.67;2.67;;;;;;;;5246119;28;8906;-73
2022/07/19 08:07:13;;;;;;;;;4.00;4.00;;;;;;;;5246941;28;10403;-73
2022/07/19 08:09:44;;;;;;;;;5.50;5.50;;;;;;;;5230560;28;8783;-75
2022/07/19 08:12:15;;;;;;;;;6.00;6.00;;;;;;;;5234345;28;8771;-72
2022/07/19 08:14:46;;;;;;;;;11.75;11.50;;;;;;;;5252139;28;8787;-73
2022/07/19 08:17:35;;;;;;;;;8.75;8.50;;;;;;;;5238497;28;9526;-74
2022/07/19 08:20:07;;;;;;;;;9.50;9.50;;;;;;;;5214037;28;8775;-73
2022/07/19 08:22:38;;;;;;;;;3.25;3.25;;;;;;;;5212817;28;8802;-74
2022/07/19 08:25:09;;;;;;;;;7.00;7.00;;;;;;;;5245952;28;8807;-73
2022/07/19 08:27:41;;;;;;;;;17.75;17.75;;;;;;;;5229261;28;9533;-73
2022/07/19 08:30:13;;;;;;;;;4.00;4.00;;;;;;;;5245836;28;8779;-74
2022/07/19 08:33:06;;;;;;;;;4.00;4.00;;;;;;;;5245628;28;8759;-74
2022/07/19 08:35:56;;;;;;;;;6.50;6.50;;;;;;;;5262514;28;8786;-73
2022/07/19 08:38:27;;;;;;;;;8.00;8.00;;;;;;;;5245448;28;8791;-74
2022/07/19 08:40:59;;;;;;;;;5.25;5.25;;;;;;;;5245175;28;11408;-74
2022/07/19 08:43:30;;;;;;;;;5.75;5.75;;;;;;;;5228531;28;8917;-74
2022/07/19 08:46:02;;;;;;;;;4.25;4.25;;;;;;;;5246423;28;8945;-74
2022/07/19 08:48:34;;;;;;;;;3.75;3.75;;;;;;;;5245308;28;9522;-74
2022/07/19 08:51:07;;;;;;;;;4.00;4.00;;;;;;;;5228611;28;8803;-74
2022/07/19 08:53:57;;;;;;;;;21.00;20.50;;;;;;;;5230871;28;8791;-74
2022/07/19 08:59:36;;;;;;;;;7.00;6.25;;;;;;;;5262041;28;9635;-74
2022/07/19 09:02:07;;;;;;;;;12.67;12.67;;;;;;;;5211689;28;8819;-72
2022/07/19 09:04:38;;;;;;;;;13.75;13.75;;;;;;;;5228101;28;11462;-73
2022/07/19 09:07:09;;;;;;;;;8.50;8.50;;;;;;;;5227901;28;8819;-73
2022/07/19 09:09:40;;;;;;;;;6.00;6.00;;;;;;;;5211891;28;8791;-74
2022/07/19 09:12:13;;;;;;;;;3.00;3.00;;;;;;;;5228244;28;8807;-74
2022/07/19 09:14:52;;;;;;;;;1.75;1.75;;;;;;;;5244698;28;8788;-73
2022/07/19 09:17:41;;;;;;;;;2.00;2.00;;;;;;;;5261901;28;8929;-74
2022/07/19 09:20:31;;;;;;;;;9.75;9.75;;;;;;;;5230865;28;8867;-74
2022/07/19 09:23:03;;;;;;;;;4.50;4.50;;;;;;;;5228076;28;8823;-74
2022/07/19 09:25:39;;;;;;;;;5.00;4.50;;;;;;;;5212506;28;9572;-74
2022/07/19 09:28:10;;;;;;;;;10.75;10.25;;;;;;;;5249030;28;8803;-74
2022/07/19 09:30:42;;;;;;;;;9.00;9.00;;;;;;;;5249056;28;8775;-74
2022/07/19 09:33:13;;;;;;;;;5.50;5.50;;;;;;;;5232029;28;8799;-74
2022/07/19 09:35:48;;;;;;;;;4.50;4.50;;;;;;;;5231993;28;8806;-73
2022/07/19 09:38:24;;;;;;;;;2.50;2.50;;;;;;;;5250142;28;9506;-73
2022/07/19 09:41:08;;;;;;;;;11.00;11.00;;;;;;;;5232367;28;8912;-73
2022/07/19 09:43:51;;;;;;;;;44.60;38.80;;;;;;;;5231800;28;8795;-74
2022/07/19 09:46:31;;;;;;;;;63.60;53.00;;;;;;;;5249644;28;8803;-73
2022/07/19 09:49:02;;;;;;;;;35.40;32.20;;;;;;;;5248668;28;8775;-73
2022/07/19 09:51:35;;;;;;;;;25.00;25.00;;;;;;;;5232124;28;8790;-73
2022/07/19 09:54:07;;;;;;;;;54.40;45.60;;;;;;;;5248344;28;11494;-73
2022/07/19 09:56:39;;;;;;;;;35.20;33.00;;;;;;;;5231779;28;8826;-73
2022/07/19 09:59:10;;;;;;;;;214.67;171.00;;;;;;;;5249316;28;8767;-73
2022/07/19 10:01:42;;;;;;;;;76.80;67.60;;;;;;;;5231741;28;10064;-73
2022/07/19 10:04:14;;;;;;;;;55.40;46.00;;;;;;;;5249328;28;8795;-73
2022/07/19 10:06:46;;;;;;;;;63.20;50.40;;;;;;;;5231329;28;9552;-73
2022/07/19 10:09:18;;;;;;;;;62.20;49.00;;;;;;;;5232068;28;8787;-73
2022/07/19 10:11:50;;;;;;;;;67.40;51.20;;;;;;;;5231329;28;8803;-73
2022/07/19 10:14:21;;;;;;;;;44.80;38.60;;;;;;;;5231305;28;8802;-74
2022/07/19 10:16:55;;;;;;;;;45.00;38.75;;;;;;;;5248061;28;8787;-74
2022/07/19 10:19:38;;;;;;;;;35.25;32.75;;;;;;;;5247666;28;9183;-74
2022/07/19 10:22:28;;;;;;;;;33.50;31.50;;;;;;;;5248914;28;8763;-74
2022/07/19 10:25:00;;;;;;;;;30.00;29.00;;;;;;;;5248960;28;8929;-74
2022/07/19 10:27:36;;;;;;;;;32.40;30.20;;;;;;;;5249050;28;8787;-74
2022/07/19 10:30:07;;;;;;;;;33.00;31.50;;;;;;;;5248323;28;8905;-74
2022/07/19 10:32:45;;;;;;;;;20.25;20.25;;;;;;;;5230983;28;9674;-73
2022/07/19 10:35:16;;;;;;;;;19.75;19.75;;;;;;;;5247809;28;8791;-74
2022/07/19 10:37:48;;;;;;;;;40.33;36.00;;;;;;;;5229463;28;8794;-74
2022/07/19 10:40:34;;;;;;;;;42.40;36.80;;;;;;;;5247304;28;11606;-73
2022/07/19 10:43:07;;;;;;;;;35.80;32.60;;;;;;;;5230820;28;8767;-74
2022/07/19 10:45:42;;;;;;;;;35.20;32.00;;;;;;;;5248512;28;8841;-74
2022/07/19 10:48:15;;;;;;;;;21.00;20.50;;;;;;;;5214168;28;8798;-74
2022/07/19 10:51:04;;;;;;;;;6.25;6.25;;;;;;;;5233199;28;8791;-74
2022/07/19 10:53:41;;;;;;;;;7.00;7.00;;;;;;;;5231044;28;9518;-74
2022/07/19 10:56:20;;;;;;;;;6.75;6.75;;;;;;;;5230726;28;9524;-73
2022/07/19 10:58:53;;;;;;;;;13.00;13.00;;;;;;;;5230484;28;8775;-75
2022/07/19 11:01:25;;;;;;;;;15.25;15.25;;;;;;;;5230839;28;8867;-73
2022/07/19 11:04:15;;;;;;;;;13.75;13.50;;;;;;;;5231494;28;8787;-73
2022/07/19 11:07:12;;;;;;;;;5.00;5.00;;;;;;;;5232941;28;9518;-74
2022/07/19 11:09:53;;;;;;;;;6.00;6.00;;;;;;;;5247415;28;9540;-73
2022/07/19 11:12:31;;;;;;;;;8.75;8.75;;;;;;;;5230960;28;8783;-74
2022/07/19 11:15:21;;;;;;;;;9.50;9.50;;;;;;;;5247893;28;9485;-73
2022/07/19 11:18:10;;;;;;;;;6.25;6.25;;;;;;;;5264530;28;8779;-73
2022/07/19 11:20:41;;;;;;;;;7.33;7.33;;;;;;;;5246750;28;9591;-73
2022/07/19 11:23:16;;;;;;;;;6.00;6.00;;;;;;;;5246627;28;9364;-73
2022/07/19 11:25:51;;;;;;;;;7.75;7.75;;;;;;;;5246539;28;9514;-74
2022/07/19 11:28:22;;;;;;;;;7.75;7.75;;;;;;;;5246476;28;8798;-74
2022/07/19 11:30:53;;;;;;;;;6.75;6.75;;;;;;;;5229996;28;8783;-74
2022/07/19 11:33:24;;;;;;;;;8.67;8.67;;;;;;;;5230125;28;8860;-73
2022/07/19 11:35:59;;;;;;;;;9.33;9.33;;;;;;;;5246281;28;11418;-74
2022/07/19 11:38:37;;;;;;;;;7.00;7.00;;;;;;;;5246203;28;11008;-74
2022/07/19 11:41:29;;;;;;;;;5.25;5.25;;;;;;;;5247957;28;8763;-74
2022/07/19 11:44:04;;;;;;;;;8.50;8.50;;;;;;;;5246488;28;9571;-75
2022/07/19 11:46:42;;;;;;;;;8.00;8.00;;;;;;;;5229744;28;8949;-73
2022/07/19 11:49:17;;;;;;;;;7.50;7.50;;;;;;;;5245924;28;8771;-73
2022/07/19 11:51:57;;;;;;;;;7.00;7.00;;;;;;;;5212683;28;8841;-74
2022/07/19 11:58:07;;;;;;;;;8.25;8.25;;;;;;;;5210972;28;8803;-73
2022/07/19 12:00:43;;;;;;;;;9.00;9.00;;;;;;;;5229213;28;8807;-74
2022/07/19 12:03:15;;;;;;;;;10.50;10.50;;;;;;;;5229212;28;8803;-74
2022/07/19 12:06:06;;;;;;;;;10.50;10.00;;;;;;;;5231890;28;8842;-72
2022/07/19 12:08:39;;;;;;;;;6.50;6.50;;;;;;;;5229008;28;8787;-73
2022/07/19 12:11:16;;;;;;;;;4.00;4.00;;;;;;;;5245600;28;8783;-73
2022/07/19 12:13:47;;;;;;;;;4.00;4.00;;;;;;;;5212349;28;8799;-74
2022/07/19 12:16:36;;;;;;;;;2.00;2.00;;;;;;;;5263085;28;8783;-74
2022/07/19 12:19:17;;;;;;;;;3.00;3.00;;;;;;;;5246646;28;8779;-73
2022/07/19 12:21:51;;;;;;;;;1.00;1.00;;;;;;;;5245853;28;8779;-73
2022/07/19 12:24:26;;;;;;;;;0.00;0.00;;;;;;;;5246733;28;8819;-74
2022/07/19 12:26:58;;;;;;;;;4.00;4.00;;;;;;;;5212377;28;8850;-74
2022/07/19 12:29:43;;;;;;;;;4.75;4.75;;;;;;;;5228736;28;8917;-73
2022/07/19 12:32:28;;;;;;;;;1.75;1.75;;;;;;;;5228993;28;8799;-72
2022/07/19 12:35:04;;;;;;;;;4.00;4.00;;;;;;;;5245271;28;8787;-73
2022/07/19 12:37:37;;;;;;;;;8.25;8.25;;;;;;;;5228852;28;8779;-73
2022/07/19 12:40:14;;;;;;;;;7.75;7.75;;;;;;;;5246878;28;8921;-73
2022/07/19 12:42:47;;;;;;;;;9.25;9.25;;;;;;;;5212135;28;8775;-73
2022/07/19 12:45:19;;;;;;;;;7.25;7.25;;;;;;;;5228605;28;8847;-74
2022/07/19 12:47:51;;;;;;;;;3.00;3.00;;;;;;;;5212075;28;8779;-73
2022/07/19 12:50:23;;;;;;;;;2.25;2.25;;;;;;;;5228822;28;8787;-73
2022/07/19 12:52:56;;;;;;;;;2.00;2.00;;;;;;;;5228515;28;8782;-73
2022/07/19 12:55:28;;;;;;;;;6.75;6.75;;;;;;;;5245016;28;8803;-73
2022/07/19 13:01:30;;;;;;;;;3.00;3.00;;;;;;;;5230903;28;8799;-73
2022/07/19 13:04:03;;;;;;;;;2.00;2.00;;;;;;;;5228807;28;8791;-73
2022/07/19 13:06:34;;;;;;;;;1.75;1.75;;;;;;;;5211714;28;8819;-73
2022/07/19 13:09:26;;;;;;;;;3.25;3.25;;;;;;;;5262228;28;9490;-75
2022/07/19 13:12:00;;;;;;;;;2.00;2.00;;;;;;;;5245207;28;8791;-74
2022/07/19 13:14:31;;;;;;;;;3.00;3.00;;;;;;;;5244936;28;8795;-74
2022/07/19 13:17:20;;;;;;;;;4.00;4.00;;;;;;;;5262084;28;9572;-73
2022/07/19 13:19:51;;;;;;;;;0.00;0.00;;;;;;;;5228303;28;8814;-73
2022/07/19 13:22:22;;;;;;;;;1.00;1.00;;;;;;;;5244799;28;8803;-73
2022/07/19 13:24:53;;;;;;;;;1.00;1.00;;;;;;;;5217797;28;8826;-74
2022/07/19 13:27:25;;;;;;;;;2.00;2.00;;;;;;;;5245064;28;9553;-74
2022/07/19 13:29:56;;;;;;;;;4.25;4.25;;;;;;;;5257639;28;10838;-74
2022/07/19 13:32:27;;;;;;;;;10.00;10.00;;;;;;;;5248771;28;8781;-75
2022/07/19 13:34:57;;;;;;;;;2.33;2.33;;;;;;;;5265531;28;8797;-75
2022/07/19 13:37:28;;;;;;;;;3.00;3.00;;;;;;;;5247081;28;11451;-73
2022/07/19 13:40:02;;;;;;;;;2.00;2.00;;;;;;;;5244752;28;8860;-74
2022/07/19 13:42:33;;;;;;;;;3.75;3.75;;;;;;;;5229194;28;8784;-73
2022/07/19 13:45:23;;;;;;;;;5.50;5.50;;;;;;;;5245673;28;8835;-74
2022/07/19 13:48:13;;;;;;;;;7.00;7.00;;;;;;;;5244940;28;9486;-73
2022/07/19 13:51:02;;;;;;;;;10.00;10.00;;;;;;;;5233485;28;8821;-74
2022/07/19 13:53:37;;;;;;;;;9.00;9.00;;;;;;;;5248617;28;8796;-73
2022/07/19 13:56:09;;;;;;;;;6.00;6.00;;;;;;;;5248547;28;8820;-74
2022/07/19 13:58:39;;;;;;;;;5.25;5.25;;;;;;;;5265056;28;8777;-74
2022/07/19 14:01:11;;;;;;;;;9.25;9.25;;;;;;;;5248681;28;8793;-72
2022/07/19 14:03:42;;;;;;;;;9.00;9.00;;;;;;;;5248535;28;8792;-72
2022/07/19 14:06:14;;;;;;;;;10.75;10.75;;;;;;;;5243350;28;8833;-73
2022/07/19 14:08:45;;;;;;;;;4.50;4.50;;;;;;;;5227728;28;8770;-72
2022/07/19 14:11:16;;;;;;;;;6.00;6.00;;;;;;;;5246200;28;8764;-73
2022/07/19 14:13:47;;;;;;;;;6.00;6.00;;;;;;;;5247970;28;9309;-74
2022/07/19 14:16:18;;;;;;;;;16.75;16.75;;;;;;;;5248363;28;9027;-74
2022/07/19 14:18:49;;;;;;;;;8.25;8.25;;;;;;;;5247023;28;8817;-74
2022/07/19 14:21:21;;;;;;;;;5.50;5.00;;;;;;;;5252996;28;8815;-72
2022/07/19 14:24:10;;;;;;;;;5.00;5.00;;;;;;;;5245920;28;8841;-73
2022/07/19 14:26:41;;;;;;;;;7.50;7.50;;;;;;;;5229354;28;8838;-73
2022/07/19 14:29:30;;;;;;;;;9.50;9.50;;;;;;;;5245723;28;8795;-73
2022/07/19 14:32:01;;;;;;;;;4.00;4.00;;;;;;;;5229257;28;8799;-73
2022/07/19 14:34:32;;;;;;;;;4.50;4.50;;;;;;;;5213484;28;9485;-73
2022/07/19 14:37:03;;;;;;;;;5.67;5.67;;;;;;;;5266709;28;8792;-72
2022/07/19 14:39:35;;;;;;;;;6.00;6.00;;;;;;;;5266817;28;10173;-73
2022/07/19 14:42:09;;;;;;;;;3.75;3.75;;;;;;;;5249903;28;8862;-75
2022/07/19 14:44:40;;;;;;;;;4.50;4.50;;;;;;;;5249760;28;8824;-74
2022/07/19 14:47:11;;;;;;;;;3.75;3.75;;;;;;;;5233028;28;8808;-73
2022/07/19 14:49:42;;;;;;;;;12.50;12.50;;;;;;;;5238455;28;8961;-73
2022/07/19 14:52:34;;;;;;;;;13.00;13.00;;;;;;;;5245842;28;8775;-73
2022/07/19 14:55:06;;;;;;;;;9.25;9.25;;;;;;;;5245148;28;9603;-73
2022/07/19 14:57:37;;;;;;;;;5.75;5.75;;;;;;;;5262399;28;8798;-74
2022/07/19 15:00:09;;;;;;;;;4.50;4.50;;;;;;;;5246667;28;8823;-73
2022/07/19 15:02:59;;;;;;;;;5.50;5.50;;;;;;;;5231637;28;8903;-72
2022/07/19 15:05:30;;;;;;;;;0.00;0.00;;;;;;;;5261625;28;8941;-72
2022/07/19 15:08:01;;;;;;;;;1.00;1.00;;;;;;;;5211958;28;8999;-73
2022/07/19 15:10:32;;;;;;;;;0.25;0.25;;;;;;;;5245171;28;11441;-73
2022/07/19 15:13:04;;;;;;;;;3.00;3.00;;;;;;;;5228249;28;8826;-73
2022/07/19 15:15:34;;;;;;;;;2.50;2.50;;;;;;;;5245288;28;8798;-73
2022/07/19 15:18:06;;;;;;;;;4.00;4.00;;;;;;;;5214992;28;8823;-73
2022/07/19 15:20:37;;;;;;;;;1.75;1.75;;;;;;;;5267136;28;8811;-72
2022/07/19 15:23:09;;;;;;;;;2.50;2.50;;;;;;;;5248082;28;8812;-73
2022/07/19 15:25:40;;;;;;;;;3.00;3.00;;;;;;;;5249161;28;8838;-73
2022/07/19 15:28:11;;;;;;;;;8.75;8.75;;;;;;;;5232352;28;8793;-73
2022/07/19 15:31:01;;;;;;;;;4.75;4.75;;;;;;;;5251396;28;8804;-74
2022/07/19 15:33:32;;;;;;;;;4.25;4.25;;;;;;;;5227788;28;8807;-73